Airfield :
LOGIN :

Register | Disclaimer

   EN    FR    IT 

 










Legend :    VFR   Marginal VFR   IFR   Intensive IFR   Very Intensive IFR
Visi :
Ceiling :
>= 8 km
>= 3000ft
5 to 8 km
1000 to 3000 ft
1500m to 5 km
500 to 1000 ft
800 to 1500m
200 to 500 ft
< 800m
< 200 ft
Symbols :   Thunderstorms  Fog  Heavy snow  Heavy precipitations  Wind > 20 kt
SIGMETs :     Misc.  Thunderstorms  Icing  Turbulence  Mountain Waves  Volcanic Ashes







- Airport Elevation : 160 ft
- IATA code : FMO


EDDG - Münster Osnabrück Int.

CURRENT METAR :
  • 201620Z VRB02KT 9999 -RA BKN027 04/01 Q1000 BECMG BKN012

EXPIRED METARs :
  • 201550Z 12004KT 080V160 9999 BKN027 04/01 Q1000 BECMG BKN012
  • 201520Z 12003KT 060V170 9999 BKN022 BKN032 04/01 Q1000 BECMG BKN012
  • 201450Z 13004KT 090V160 9999 SCT020 BKN032 04/01 Q1000 BECMG BKN012
  • 201420Z 13004KT 060V160 9999 SCT020 BKN030 04/01 Q1001 BECMG BKN012
  • 201350Z 15003KT 120V180 9999 FEW012 SCT018 BKN030 04/01 Q1001 TEMPO BKN012

TAF TAF EDDG
Valid from the 20 at 12:00 until the 21 at 12:00 UTC


201100Z 2012/2112 21007KT 9999 BKN020
TEMPO 2012/2018 BKN014
BECMG 2013/2016 VRB03KT
TEMPO 2018/2021 RA
BECMG 2018/2021 26005KT SCT008 BKN012
TEMPO 2021/2102 2500 RASN BKN007
BECMG 2103/2106 BKN020
No reported NOTAMs for that airfield.
1 SIGMET reported for the Langen FIR (EDGG) :
 
Severe icing
EDGG SIGMET 2 VALID 201400/201800 EDZF
EDGG LANGEN FIR SEV ICE FCST WI N5206 E00755 - N5121 E01028 - N5015 E01016 - N4904 E00756 - N4906 E00756 - N4937 E00622 - N5153 E00608 - N5206 E00755 2000FT/FL160 MOV NE NC=



MET'MAP, your aeronautical weather chart ! - Copyright ORBIFLY December 2007 - Disclaimer

ORBIFLY MET'MAP TEAM :

Programming & Development : Alexandra Zaïnal
Concept & Development : Baudouin d'Aumeries
Co-Development & Prog : Marc-Olivier Méhu
Technical & hardware support : Manuel Goepfert

Contact : metmap@orbifly.com




SOURCES & CREDITS :

   NOAA